Time;durP1;ratioP1;P1;durP2;ratioP2;P2;SDS_P1;SDS_P2;PMS_P1;PMS_P2;Temp;Humidity;BMP_temperature;BMP_pressure;BME280_temperature;BME280_humidity;BME280_pressure;Samples;Min_cycle;Max_cycle;Signal;HPM_P1;HPM_P2
2022/12/10 00:00:16;;;;;;;;;55.75;43.50;;;;;5.87;57.28;100202.03;5066972;27;45472;-44
2022/12/10 00:02:41;;;;;;;;;62.00;42.25;;;;;5.83;57.35;100196.03;5065538;28;45351;-43
2022/12/10 00:05:07;;;;;;;;;53.50;40.25;;;;;5.81;57.15;100192.63;5065507;28;58916;-46
2022/12/10 00:07:32;;;;;;;;;62.25;44.00;;;;;5.81;57.35;100195.22;5076611;27;47040;-45
2022/12/10 00:09:58;;;;;;;;;68.00;45.00;;;;;5.80;57.25;100196.09;5073769;27;65857;-46
2022/12/10 00:12:23;;;;;;;;;61.50;45.00;;;;;5.80;57.44;100203.03;5068744;28;60965;-42
2022/12/10 00:14:48;;;;;;;;;65.50;47.75;;;;;5.80;57.55;100210.81;5064594;27;45277;-46
2022/12/10 00:17:14;;;;;;;;;61.50;43.00;;;;;5.77;57.72;100205.66;5069902;27;46173;-44
2022/12/10 00:19:39;;;;;;;;;61.75;47.75;;;;;5.77;57.62;100210.84;5078403;27;57183;-44
2022/12/10 00:22:05;;;;;;;;;66.75;48.50;;;;;5.77;57.66;100214.34;5066275;28;45377;-45
2022/12/10 00:24:30;;;;;;;;;60.50;45.50;;;;;5.76;57.60;100199.63;5069481;28;63494;-44
2022/12/10 00:26:55;;;;;;;;;63.25;45.00;;;;;5.78;57.70;100208.25;5055255;28;46205;-45
2022/12/10 00:29:21;;;;;;;;;60.25;42.25;;;;;5.78;57.51;100208.25;5068805;27;54505;-45
2022/12/10 00:31:46;;;;;;;;;65.25;47.50;;;;;5.75;57.69;100200.50;5064929;28;45497;-45
2022/12/10 00:34:12;;;;;;;;;58.00;43.50;;;;;5.70;57.86;100204.91;5079235;28;45512;-42
2022/12/10 00:36:41;;;;;;;;;61.75;46.00;;;;;5.70;57.88;100216.16;5075449;28;46072;-44
2022/12/10 00:39:07;;;;;;;;;63.00;42.00;;;;;5.73;57.86;100224.78;5079625;28;45744;-42
2022/12/10 00:41:33;;;;;;;;;62.50;43.50;;;;;5.70;57.99;100223.94;5075602;27;45495;-43
2022/12/10 00:43:58;;;;;;;;;55.00;42.50;;;;;5.69;57.95;100229.16;5070659;28;45695;-45
2022/12/10 00:46:24;;;;;;;;;58.25;42.75;;;;;5.67;57.70;100218.78;5079145;27;47448;-48
2022/12/10 00:48:49;;;;;;;;;69.25;45.75;;;;;5.70;57.99;100220.47;5066892;28;49371;-44
2022/12/10 00:51:17;;;;;;;;;66.25;46.00;;;;;5.71;58.12;100224.78;5064975;27;49741;-44
2022/12/10 00:53:43;;;;;;;;;60.00;46.25;;;;;5.74;58.05;100223.88;5061689;28;45628;-44
2022/12/10 00:56:10;;;;;;;;;63.25;44.00;;;;;5.76;58.08;100219.53;5072888;28;45747;-44
2022/12/10 00:58:37;;;;;;;;;61.75;46.00;;;;;5.78;57.81;100233.34;5066765;27;45348;-42
2022/12/10 01:01:10;;;;;;;;;69.00;45.00;;;;;5.77;57.83;100213.44;5094596;27;45425;-43
2022/12/10 01:03:36;;;;;;;;;62.75;45.25;;;;;5.75;58.03;100231.66;5077563;28;45343;-44
2022/12/10 01:06:30;;;;;;;;;62.00;47.75;;;;;5.77;57.93;100223.84;5074134;27;46537;-44
2022/12/10 01:08:57;;;;;;;;;64.50;47.00;;;;;5.79;58.04;100224.66;5075836;28;46135;-43
2022/12/10 01:11:26;;;;;;;;;60.00;43.75;;;;;5.82;57.92;100232.41;5071985;28;45745;-42
2022/12/10 01:13:51;;;;;;;;;62.25;48.00;;;;;5.85;57.85;100229.78;5075253;28;45449;-43
2022/12/10 01:16:18;;;;;;;;;64.75;48.25;;;;;5.86;57.72;100232.34;5081300;27;45284;-47
2022/12/10 01:18:43;;;;;;;;;69.75;50.25;;;;;5.88;57.46;100234.94;5071488;28;45354;-45
2022/12/10 01:21:15;;;;;;;;;74.25;52.25;;;;;5.88;57.81;100238.38;5055329;28;45265;-45
2022/12/10 01:23:42;;;;;;;;;69.50;51.25;;;;;5.87;57.76;100241.00;5077567;27;45628;-43
2022/12/10 01:26:12;;;;;;;;;61.75;48.50;;;;;5.87;57.87;100238.41;5075477;27;45445;-43
2022/12/10 01:28:39;;;;;;;;;66.00;47.75;;;;;5.86;57.66;100237.56;5075055;27;45788;-46
2022/12/10 01:31:08;;;;;;;;;57.75;43.50;;;;;5.87;57.63;100248.78;5067356;27;45291;-45
2022/12/10 01:33:34;;;;;;;;;63.25;44.00;;;;;5.87;57.45;100257.41;5078622;27;45619;-43
2022/12/10 01:36:04;;;;;;;;;66.25;47.75;;;;;5.85;57.60;100253.16;5080195;28;45430;-49
2022/12/10 01:38:30;;;;;;;;;63.00;45.50;;;;;5.84;57.68;100262.69;5055765;28;45813;-47
2022/12/10 01:40:55;;;;;;;;;60.25;42.25;;;;;5.79;57.43;100256.69;5071883;27;55006;-46
2022/12/10 01:43:20;;;;;;;;;60.25;44.50;;;;;5.82;57.45;100268.75;5074223;27;63635;-43
2022/12/10 01:45:46;;;;;;;;;63.50;43.00;;;;;5.79;57.53;100266.22;5073939;28;46094;-45
2022/12/10 01:48:11;;;;;;;;;58.00;41.25;;;;;5.79;57.71;100269.69;5064620;28;50816;-48
2022/12/10 01:50:37;;;;;;;;;60.25;42.75;;;;;5.79;57.36;100274.88;5071218;27;52307;-43
2022/12/10 01:53:02;;;;;;;;;53.25;42.50;;;;;5.77;57.65;100279.25;5072700;28;45213;-47
2022/12/10 01:55:49;;;;;;;;;55.75;41.75;;;;;5.75;57.70;100286.16;5067244;28;45409;-45
2022/12/10 01:58:16;;;;;;;;;61.00;41.50;;;;;5.73;57.56;100290.53;5078167;28;45867;-45
2022/12/10 02:00:51;;;;;;;;;53.00;41.25;;;;;5.67;57.79;100288.88;5070386;27;45524;-48
2022/12/10 02:03:30;;;;;;;;;61.50;43.25;;;;;5.65;57.59;100284.59;5065830;28;45998;-42
2022/12/10 02:06:08;;;;;;;;;55.25;41.75;;;;;5.64;57.66;100281.13;5065383;27;45303;-45
2022/12/10 02:08:44;;;;;;;;;58.00;43.50;;;;;5.61;57.87;100283.78;5078907;27;45278;-46
2022/12/10 02:11:20;;;;;;;;;51.25;39.00;;;;;5.63;57.70;100287.22;5083764;27;45584;-43
2022/12/10 02:13:55;;;;;;;;;57.75;42.25;;;;;5.64;58.02;100296.72;5078048;27;45469;-49
2022/12/10 02:16:34;;;;;;;;;56.00;41.00;;;;;5.63;57.92;100291.53;5078006;27;47107;-48
2022/12/10 02:19:13;;;;;;;;;55.00;42.00;;;;;5.61;57.78;100301.09;5071034;27;45352;-43
2022/12/10 02:21:40;;;;;;;;;52.50;38.00;;;;;5.57;57.87;100300.25;5091082;27;45361;-43
2022/12/10 02:24:11;;;;;;;;;62.00;43.50;;;;;5.53;57.88;100302.94;5077814;27;45334;-46
2022/12/10 02:26:55;;;;;;;;;55.00;41.50;;;;;5.47;57.95;100309.94;5072720;27;45372;-43
2022/12/10 02:29:24;;;;;;;;;53.00;38.25;;;;;5.45;58.04;100306.50;5073374;28;45438;-45
2022/12/10 02:32:22;;;;;;;;;58.00;42.75;;;;;5.46;58.00;100302.16;5090401;27;45372;-44
2022/12/10 02:34:51;;;;;;;;;45.50;38.50;;;;;5.44;57.99;100307.38;5086344;27;45307;-43
2022/12/10 02:37:30;;;;;;;;;56.50;39.00;;;;;5.43;58.47;100308.22;5058769;28;45682;-43
2022/12/10 02:39:58;;;;;;;;;51.50;36.75;;;;;5.42;58.41;100303.94;5072039;28;45816;-43
2022/12/10 02:42:25;;;;;;;;;57.75;39.25;;;;;5.42;58.40;100305.66;5073491;28;45528;-44
2022/12/10 02:44:52;;;;;;;;;48.75;37.25;;;;;5.41;58.42;100301.34;5071885;28;47231;-45
2022/12/10 02:47:18;;;;;;;;;47.50;36.00;;;;;5.38;58.45;100306.56;5083431;27;46243;-45
2022/12/10 02:49:46;;;;;;;;;48.25;34.25;;;;;5.43;58.51;100307.38;5077499;27;63244;-44
2022/12/10 02:52:18;;;;;;;;;43.00;34.75;;;;;5.44;58.80;100301.31;5073995;28;45463;-45
2022/12/10 02:54:45;;;;;;;;;46.50;36.25;;;;;5.47;58.43;100309.03;5078357;27;45216;-43
2022/12/10 02:57:29;;;;;;;;;48.75;39.00;;;;;5.47;58.46;100307.34;5072084;28;45346;-44
2022/12/10 03:00:06;;;;;;;;;54.50;39.50;;;;;5.48;58.23;100305.59;5075285;27;45528;-44
2022/12/10 03:02:57;;;;;;;;;46.25;36.00;;;;;5.49;58.33;100309.91;5074350;27;45451;-45
2022/12/10 03:05:34;;;;;;;;;52.00;38.25;;;;;5.49;58.57;100312.50;5075507;28;45228;-43
2022/12/10 03:08:11;;;;;;;;;45.00;36.75;;;;;5.51;58.52;100305.56;5060230;28;46156;-45
2022/12/10 03:11:03;;;;;;;;;51.00;36.00;;;;;5.58;58.25;100309.78;5074706;28;45342;-43
2022/12/10 03:13:33;;;;;;;;;52.75;39.00;;;;;5.60;58.26;100304.56;5073440;27;45474;-43
2022/12/10 03:16:00;;;;;;;;;53.25;38.25;;;;;5.63;58.35;100307.97;5058734;28;45398;-43
2022/12/10 03:18:26;;;;;;;;;48.75;38.50;;;;;5.65;58.46;100297.59;5086920;27;55880;-43
2022/12/10 03:20:53;;;;;;;;;52.25;38.25;;;;;5.65;58.39;100303.63;5071798;27;45631;-43
2022/12/10 03:23:19;;;;;;;;;52.25;36.00;;;;;5.67;58.49;100307.06;5051279;28;45454;-43
2022/12/10 03:25:48;;;;;;;;;40.50;30.25;;;;;5.69;58.26;100312.22;5070445;27;45377;-44
2022/12/10 03:28:14;;;;;;;;;46.00;40.75;;;;;5.65;58.06;100314.00;5064083;28;45421;-44
2022/12/10 03:30:41;;;;;;;;;15.75;0.50;;;;;5.63;58.18;100310.59;5093699;27;45489;-44
2022/12/10 03:33:06;;;;;;;;;55.00;38.25;;;;;5.63;58.31;100314.88;5072396;27;45471;-43
2022/12/10 03:35:32;;;;;;;;;45.75;36.50;;;;;5.61;58.10;100322.72;5069725;27;45225;-43
2022/12/10 03:37:58;;;;;;;;;51.75;38.00;;;;;5.64;58.18;100322.66;5052065;28;63556;-46
2022/12/10 03:40:24;;;;;;;;;38.00;29.50;;;;;5.64;58.29;100316.63;5077506;28;61890;-45
2022/12/10 03:42:50;;;;;;;;;52.50;37.25;;;;;5.59;58.12;100314.06;5066848;27;45350;-43
2022/12/10 03:45:15;;;;;;;;;45.75;37.75;;;;;5.60;58.38;100326.19;5065873;28;45355;-43
2022/12/10 03:47:41;;;;;;;;;44.00;36.75;;;;;5.59;58.38;100323.63;5074787;27;48233;-44
2022/12/10 03:50:07;;;;;;;;;50.75;36.25;;;;;5.58;58.50;100319.28;5078826;27;45718;-43
2022/12/10 03:52:32;;;;;;;;;47.00;35.00;;;;;5.60;58.49;100325.34;5095400;27;45383;-44
2022/12/10 03:54:57;;;;;;;;;45.50;37.00;;;;;5.61;58.28;100324.44;5065998;28;64357;-43
2022/12/10 03:57:23;;;;;;;;;54.00;38.25;;;;;5.63;58.36;100326.16;5059396;28;45343;-45
2022/12/10 03:59:48;;;;;;;;;40.50;31.75;;;;;5.63;58.50;100331.34;5058655;28;53622;-43
2022/12/10 04:02:13;;;;;;;;;52.00;34.00;;;;;5.60;58.52;100328.78;5076079;27;45838;-46
2022/12/10 04:04:39;;;;;;;;;40.50;31.25;;;;;5.63;58.36;100339.13;5060429;28;59976;-44
2022/12/10 04:07:04;;;;;;;;;45.00;36.00;;;;;5.64;58.45;100338.25;5071907;28;46076;-43
2022/12/10 04:09:29;;;;;;;;;47.25;30.50;;;;;5.63;58.34;100339.13;5079766;27;45379;-44
2022/12/10 04:11:58;;;;;;;;;44.00;30.75;;;;;5.64;58.34;100337.38;5077502;27;61991;-44
2022/12/10 04:17:09;;;;;;;;;44.50;29.00;;;;;5.63;58.18;100335.66;5075853;27;45551;-46
2022/12/10 04:19:34;;;;;;;;;37.25;31.00;;;;;5.61;58.03;100332.22;5077767;27;62744;-50
2022/12/10 04:27:33;;;;;;;;;33.25;25.75;;;;;5.55;58.02;100327.97;5074897;28;45775;-47
2022/12/10 04:29:59;;;;;;;;;42.00;34.25;;;;;5.54;57.78;100336.63;5070300;27;45448;-49
2022/12/10 04:32:26;;;;;;;;;38.75;29.00;;;;;5.57;57.78;100335.75;5071082;27;45275;-45
2022/12/10 04:34:51;;;;;;;;;35.75;23.50;;;;;5.57;57.63;100335.75;5072463;27;45245;-45
2022/12/10 04:37:17;;;;;;;;;39.75;31.00;;;;;5.56;57.68;100340.09;5069866;27;45766;-43
2022/12/10 04:39:43;;;;;;;;;31.50;22.50;;;;;5.54;57.25;100344.41;5070213;27;45363;-45
2022/12/10 04:42:09;;;;;;;;;46.50;28.25;;;;;5.51;57.61;100334.94;5076608;27;45243;-48
2022/12/10 04:44:34;;;;;;;;;36.50;25.00;;;;;5.53;57.61;100344.47;5077400;27;45219;-45
2022/12/10 04:47:00;;;;;;;;;31.50;24.50;;;;;5.53;57.44;100342.72;5085718;27;47052;-46
2022/12/10 04:49:26;;;;;;;;;37.00;24.00;;;;;5.54;57.50;100348.75;5071178;28;58445;-46
2022/12/10 04:51:52;;;;;;;;;38.25;24.50;;;;;5.57;57.62;100354.78;5080262;27;45315;-47
2022/12/10 04:54:18;;;;;;;;;39.50;27.25;;;;;5.60;57.51;100349.56;5069268;28;45365;-46
2022/12/10 04:56:43;;;;;;;;;32.25;25.25;;;;;5.62;57.35;100349.53;5073921;27;46299;-47
2022/12/10 04:59:09;;;;;;;;;36.00;27.25;;;;;5.65;57.54;100352.94;5073572;27;45480;-44
2022/12/10 05:01:35;;;;;;;;;13.00;6.50;;;;;5.63;57.32;100354.72;5081617;27;45267;-47
2022/12/10 05:04:02;;;;;;;;;38.25;27.25;;;;;5.64;57.16;100350.38;5055081;28;45301;-48
2022/12/10 05:06:27;;;;;;;;;36.00;25.75;;;;;5.65;57.32;100352.09;5056345;28;46381;-46
2022/12/10 05:08:53;;;;;;;;;36.75;27.00;;;;;5.66;57.25;100356.41;5071252;27;45567;-46
2022/12/10 05:11:21;;;;;;;;;38.00;28.25;;;;;5.64;57.23;100353.81;5076633;27;45472;-45
2022/12/10 05:13:46;;;;;;;;;41.75;29.25;;;;;5.66;57.18;100344.25;5081707;27;45542;-45
2022/12/10 05:16:14;;;;;;;;;32.00;17.75;;;;;5.69;57.28;100358.97;5071432;27;47902;-44
2022/12/10 05:18:40;;;;;;;;;33.75;23.75;;;;;5.70;57.01;100353.75;5083573;27;45295;-48
2022/12/10 05:21:10;;;;;;;;;25.75;24.25;;;;;5.69;57.10;100341.63;5076825;27;45154;-45
2022/12/10 05:23:37;;;;;;;;;30.25;25.50;;;;;5.73;56.98;100354.59;5073189;27;45670;-45
2022/12/10 05:26:10;;;;;;;;;26.25;20.50;;;;;5.75;56.85;100358.00;5075433;27;45558;-44
2022/12/10 05:28:39;;;;;;;;;33.00;21.00;;;;;5.73;56.31;100358.03;5074187;27;45354;-45
2022/12/10 05:31:05;;;;;;;;;37.00;25.00;;;;;5.70;56.71;100358.06;5072096;27;45248;-47
2022/12/10 05:33:31;;;;;;;;;25.50;24.00;;;;;5.69;56.75;100366.75;5076116;27;45284;-49
2022/12/10 05:36:00;;;;;;;;;35.50;20.75;;;;;5.70;56.66;100368.44;5074416;27;45249;-48
2022/12/10 05:38:26;;;;;;;;;31.00;21.25;;;;;5.71;56.70;100372.78;5073420;27;45286;-50
2022/12/10 05:40:52;;;;;;;;;27.00;20.00;;;;;5.70;56.60;100369.31;5072745;27;45350;-48
2022/12/10 05:43:17;;;;;;;;;28.50;20.75;;;;;5.74;56.71;100369.25;5068808;27;45455;-47
2022/12/10 05:45:43;;;;;;;;;31.75;22.25;;;;;5.75;56.68;100371.00;5065344;27;45575;-46
2022/12/10 05:48:12;;;;;;;;;24.25;21.50;;;;;5.77;56.59;100384.81;5069387;27;45406;-44
2022/12/10 05:50:38;;;;;;;;;40.75;25.25;;;;;5.77;56.48;100384.81;5067655;27;45523;-44
2022/12/10 05:53:03;;;;;;;;;23.00;19.00;;;;;5.78;56.31;100386.53;5070752;27;45251;-46
2022/12/10 05:55:28;;;;;;;;;27.25;21.50;;;;;5.74;56.21;100388.31;5076986;27;55286;-48
2022/12/10 05:57:55;;;;;;;;;32.75;23.00;;;;;5.74;56.41;100393.50;5078139;27;45397;-46
2022/12/10 06:00:23;;;;;;;;;31.75;24.75;;;;;5.78;56.70;100391.75;5089483;27;45542;-45
2022/12/10 06:02:49;;;;;;;;;38.25;29.00;;;;;5.80;56.61;100393.41;5089203;27;45374;-45
2022/12/10 06:05:14;;;;;;;;;31.75;24.75;;;;;5.81;56.54;100387.38;5071248;27;46937;-49
2022/12/10 06:07:39;;;;;;;;;24.75;21.00;;;;;5.84;56.43;100389.03;5076005;27;45390;-48
2022/12/10 06:10:05;;;;;;;;;29.75;22.25;;;;;5.83;56.19;100400.31;5070926;27;60029;-44
2022/12/10 06:12:30;;;;;;;;;27.25;23.50;;;;;5.82;56.49;100390.81;5066131;27;45390;-44
2022/12/10 06:14:55;;;;;;;;;33.00;22.75;;;;;5.82;56.63;100394.25;5065182;28;51046;-46
2022/12/10 06:17:21;;;;;;;;;32.00;21.75;;;;;5.83;56.34;100393.38;5084184;27;53834;-45
2022/12/10 06:19:46;;;;;;;;;25.25;19.25;;;;;5.86;56.11;100392.47;5067323;27;45415;-46
2022/12/10 06:22:11;;;;;;;;;30.50;26.75;;;;;5.86;56.38;100401.16;5068425;28;58137;-44
2022/12/10 06:24:37;;;;;;;;;30.25;23.25;;;;;5.87;56.29;100409.78;5093374;27;59054;-48
2022/12/10 06:27:03;;;;;;;;;34.75;20.00;;;;;5.88;56.29;100419.31;5073078;27;58520;-49
2022/12/10 06:29:29;;;;;;;;;30.50;24.50;;;;;5.86;56.35;100408.94;5085765;27;45475;-49
2022/12/10 06:31:54;;;;;;;;;33.00;20.25;;;;;5.86;56.24;100421.91;5072801;27;45553;-44
2022/12/10 06:34:19;;;;;;;;;34.75;27.50;;;;;5.85;56.39;100415.00;5070315;27;56638;-49
2022/12/10 06:36:45;;;;;;;;;31.50;23.50;;;;;5.85;56.35;100414.16;5088086;27;59453;-46
2022/12/10 06:39:10;;;;;;;;;28.00;16.75;;;;;5.84;56.34;100413.28;5087834;27;45460;-47
2022/12/10 06:41:35;;;;;;;;;33.00;24.50;;;;;5.83;56.33;100418.50;5078111;27;45472;-46
2022/12/10 06:44:01;;;;;;;;;34.75;23.00;;;;;5.79;56.10;100432.38;5064411;27;63577;-46
2022/12/10 06:46:27;;;;;;;;;26.25;21.25;;;;;5.77;56.05;100429.84;5072013;27;60486;-46
2022/12/10 06:48:53;;;;;;;;;28.50;18.25;;;;;5.78;56.11;100438.47;5067971;27;45466;-46
2022/12/10 06:51:18;;;;;;;;;32.75;20.00;;;;;5.78;56.36;100443.66;5063143;28;63059;-48
2022/12/10 06:53:44;;;;;;;;;29.25;21.00;;;;;5.81;56.05;100438.44;5081830;27;59926;-45
2022/12/10 06:56:15;;;;;;;;;26.25;19.00;;;;;5.82;55.75;100437.53;5074840;28;46642;-46
2022/12/10 06:58:41;;;;;;;;;31.25;22.75;;;;;5.80;55.98;100437.56;5072963;27;45494;-46
2022/12/10 07:01:27;;;;;;;;;37.00;22.00;;;;;5.78;56.20;100436.72;5068057;28;45316;-48
2022/12/10 07:03:54;;;;;;;;;31.50;20.25;;;;;5.79;56.28;100441.06;5070776;27;66020;-48
2022/12/10 07:06:20;;;;;;;;;29.50;18.50;;;;;5.81;56.21;100447.09;5075053;27;45380;-45
2022/12/10 07:08:46;;;;;;;;;37.00;24.25;;;;;5.81;56.16;100454.03;5084130;27;46752;-46
2022/12/10 07:11:14;;;;;;;;;28.75;21.00;;;;;5.80;56.55;100453.13;5070199;27;45635;-45
2022/12/10 07:13:40;;;;;;;;;32.25;22.25;;;;;5.75;56.04;100449.75;5066335;27;46027;-50
2022/12/10 07:16:13;;;;;;;;;32.00;25.00;;;;;5.81;56.28;100461.81;5067891;28;51623;-47
2022/12/10 07:18:38;;;;;;;;;35.00;24.50;;;;;5.74;56.21;100449.75;5074480;27;45235;-47
2022/12/10 07:21:17;;;;;;;;;29.00;20.00;;;;;5.80;56.22;100471.31;5065536;27;58736;-47
2022/12/10 07:23:43;;;;;;;;;32.00;20.50;;;;;5.80;56.44;100476.50;5061393;28;45642;-45
2022/12/10 07:26:08;;;;;;;;;29.25;21.75;;;;;5.80;56.33;100470.47;5073291;28;45268;-48
2022/12/10 07:28:34;;;;;;;;;31.50;21.00;;;;;5.82;56.33;100473.91;5078556;27;57475;-50
2022/12/10 07:31:01;;;;;;;;;33.00;22.00;;;;;5.82;56.17;100469.56;5072009;27;58370;-45
2022/12/10 07:33:27;;;;;;;;;31.67;23.67;;;;;5.83;56.42;100476.47;5089156;27;45418;-49
2022/12/10 07:35:52;;;;;;;;;29.75;20.75;;;;;5.84;56.39;100474.75;5070135;27;66947;-49
2022/12/10 07:38:17;;;;;;;;;32.25;22.50;;;;;5.83;56.48;100473.88;5071604;28;45280;-50
2022/12/10 07:40:43;;;;;;;;;38.50;26.00;;;;;5.85;56.51;100476.47;5066453;28;66357;-46
2022/12/10 07:43:08;;;;;;;;;28.25;23.25;;;;;5.85;56.29;100473.88;5069071;27;66696;-45
2022/12/10 07:45:33;;;;;;;;;28.50;20.50;;;;;5.84;56.28;100483.41;5071527;28;66871;-46
2022/12/10 07:47:59;;;;;;;;;32.00;24.75;;;;;5.82;56.49;100479.09;5076265;27;60401;-46
2022/12/10 07:50:24;;;;;;;;;27.25;23.00;;;;;5.84;56.23;100490.31;5073194;28;46674;-45
2022/12/10 07:52:49;;;;;;;;;27.50;17.25;;;;;5.81;56.36;100482.59;5071548;27;57110;-46
2022/12/10 07:55:15;;;;;;;;;21.25;18.00;;;;;5.83;56.52;100492.06;5066316;27;45574;-46
2022/12/10 07:57:40;;;;;;;;;20.75;16.00;;;;;5.85;56.09;100489.47;5073049;27;55723;-47
2022/12/10 08:00:06;;;;;;;;;25.25;18.25;;;;;5.87;56.15;100492.88;5071298;28;64353;-47
2022/12/10 08:02:31;;;;;;;;;31.25;18.00;;;;;5.88;56.23;100494.63;5074427;27;45350;-46
2022/12/10 08:04:57;;;;;;;;;23.25;16.25;;;;;5.86;55.91;100499.84;5068049;27;45431;-47
2022/12/10 08:07:22;;;;;;;;;28.00;16.75;;;;;5.86;56.06;100499.84;5068987;28;64340;-50
2022/12/10 08:09:47;;;;;;;;;25.00;23.00;;;;;5.87;56.13;100504.13;5097201;27;45486;-47
2022/12/10 08:12:13;;;;;;;;;26.00;20.75;;;;;5.89;55.93;100507.56;5079641;27;46958;-46
2022/12/10 08:14:38;;;;;;;;;28.00;23.25;;;;;5.89;56.23;100506.72;5077678;27;66445;-47
2022/12/10 08:17:03;;;;;;;;;24.75;18.00;;;;;5.90;56.19;100514.50;5065176;28;52511;-46
2022/12/10 08:19:29;;;;;;;;;27.75;24.75;;;;;5.89;56.17;100519.69;5063845;28;49369;-47
2022/12/10 08:21:54;;;;;;;;;30.00;21.25;;;;;5.91;56.15;100523.13;5075697;27;52213;-46
2022/12/10 08:24:19;;;;;;;;;30.50;21.25;;;;;5.94;56.27;100524.84;5078920;27;54728;-48
2022/12/10 08:26:45;;;;;;;;;25.75;19.50;;;;;5.97;56.43;100527.44;5076672;27;50551;-49
2022/12/10 08:29:10;;;;;;;;;34.25;21.50;;;;;6.00;56.37;100535.19;5076491;28;64551;-49
2022/12/10 08:31:36;;;;;;;;;31.50;22.25;;;;;5.99;56.36;100536.09;5072791;27;46283;-52
2022/12/10 08:34:01;;;;;;;;;27.25;22.25;;;;;5.98;56.42;100532.59;5069398;28;45236;-51
2022/12/10 08:36:27;;;;;;;;;23.00;19.00;;;;;5.97;56.11;100543.88;5067014;28;45297;-49
2022/12/10 08:38:52;;;;;;;;;27.50;20.75;;;;;5.96;56.38;100544.75;5076391;27;45231;-51
2022/12/10 08:41:20;;;;;;;;;26.00;20.25;;;;;5.95;56.38;100553.41;5070389;27;56786;-48
2022/12/10 08:43:47;;;;;;;;;26.75;22.00;;;;;5.96;56.30;100552.53;5071492;28;45375;-51
2022/12/10 08:46:13;;;;;;;;;30.25;20.75;;;;;6.00;56.24;100556.84;5072381;27;45261;-49
2022/12/10 08:48:39;;;;;;;;;20.50;15.00;;;;;6.02;56.12;100559.41;5068659;27;45492;-48
2022/12/10 08:51:05;;;;;;;;;26.75;17.25;;;;;6.01;56.20;100553.34;5080105;27;45284;-51
2022/12/10 08:53:32;;;;;;;;;23.75;21.25;;;;;6.02;56.22;100555.09;5079660;27;45551;-49
2022/12/10 08:55:57;;;;;;;;;22.50;19.50;;;;;6.01;56.04;100548.16;5072112;27;45485;-51
2022/12/10 08:58:23;;;;;;;;;20.50;15.50;;;;;6.04;56.26;100552.47;5080346;27;45296;-49
2022/12/10 09:00:49;;;;;;;;;24.50;17.50;;;;;6.04;56.10;100553.34;5068423;28;45501;-48
2022/12/10 09:03:15;;;;;;;;;18.25;12.25;;;;;6.06;55.89;100561.13;5068527;27;45391;-46
2022/12/10 09:05:41;;;;;;;;;22.00;19.00;;;;;6.06;55.85;100561.97;5075428;27;45584;-49
2022/12/10 09:08:06;;;;;;;;;25.75;18.75;;;;;6.08;55.98;100567.16;5072371;28;45316;-49
2022/12/10 09:10:32;;;;;;;;;25.75;18.50;;;;;6.07;55.56;100568.00;5070807;27;64601;-51
2022/12/10 09:12:57;;;;;;;;;15.75;13.75;;;;;6.08;55.51;100569.75;5097555;27;45487;-47
2022/12/10 09:15:23;;;;;;;;;16.75;15.75;;;;;6.08;55.48;100572.34;5094558;27;45479;-46
2022/12/10 09:17:48;;;;;;;;;22.00;15.00;;;;;6.08;55.42;100574.94;5080321;27;45378;-49
2022/12/10 09:20:13;;;;;;;;;23.00;19.75;;;;;6.06;55.61;100576.69;5076392;27;62805;-51
2022/12/10 09:22:39;;;;;;;;;18.25;14.00;;;;;6.10;55.63;100580.13;5076523;28;45323;-46
2022/12/10 09:25:06;;;;;;;;;26.25;15.25;;;;;6.09;55.67;100587.03;5076852;27;45579;-49
2022/12/10 09:27:32;;;;;;;;;22.25;18.75;;;;;6.06;55.43;100577.56;5072120;27;45414;-50
2022/12/10 09:29:57;;;;;;;;;20.75;14.75;;;;;6.07;55.56;100581.88;5074318;27;45442;-47
2022/12/10 09:32:23;;;;;;;;;24.50;19.00;;;;;6.10;55.48;100583.56;5077280;28;45298;-48
2022/12/10 09:34:52;;;;;;;;;21.75;14.75;;;;;6.13;55.62;100590.50;5054312;27;46496;-48
2022/12/10 09:37:18;;;;;;;;;21.75;17.50;;;;;6.15;55.56;100583.53;5071515;28;45326;-45
2022/12/10 09:39:43;;;;;;;;;25.75;20.25;;;;;6.18;55.33;100591.28;5072477;28;45396;-46
2022/12/10 09:42:38;;;;;;;;;24.75;15.00;;;;;6.20;55.62;100579.16;5076376;28;47762;-46
2022/12/10 09:45:12;;;;;;;;;28.50;20.25;;;;;6.22;55.62;100575.63;5063731;27;45861;-46
2022/12/10 09:47:52;;;;;;;;;19.50;14.75;;;;;6.24;55.33;100579.06;5075650;27;45573;-45
2022/12/10 09:50:30;;;;;;;;;28.00;21.75;;;;;6.30;55.00;100591.13;5095843;27;46279;-42
2022/12/10 09:52:58;;;;;;;;;26.75;21.00;;;;;6.31;55.20;100589.41;5076888;27;45894;-42
2022/12/10 09:55:34;;;;;;;;;24.00;18.00;;;;;6.34;55.20;100590.25;5076359;27;45453;-43
2022/12/10 09:57:59;;;;;;;;;25.00;20.00;;;;;6.35;55.07;100591.94;5076946;28;45629;-45
2022/12/10 10:00:41;;;;;;;;;26.25;20.50;;;;;6.36;54.93;100590.22;5079759;27;46119;-47
2022/12/10 10:03:12;;;;;;;;;23.75;17.25;;;;;6.39;54.83;100595.38;5070571;28;45413;-43
2022/12/10 10:05:49;;;;;;;;;24.00;19.25;;;;;6.41;54.76;100596.19;5074167;27;45454;-44
2022/12/10 10:08:32;;;;;;;;;35.50;25.50;;;;;6.43;54.59;100600.50;5092317;27;45398;-48
2022/12/10 10:10:59;;;;;;;;;25.75;22.25;;;;;6.45;54.75;100601.34;5096472;27;46333;-44
2022/12/10 10:13:36;;;;;;;;;27.75;20.50;;;;;6.47;54.86;100585.75;5071233;27;45982;-45
2022/12/10 10:16:21;;;;;;;;;32.25;23.75;;;;;6.53;54.73;100585.66;5076505;27;45561;-42
2022/12/10 10:18:52;;;;;;;;;35.25;22.25;;;;;6.58;54.58;100590.81;5073726;27;45512;-45
2022/12/10 10:21:23;;;;;;;;;30.50;22.00;;;;;6.58;54.32;100594.25;5063583;28;46231;-43
2022/12/10 10:23:48;;;;;;;;;32.50;21.00;;;;;6.58;54.36;100588.19;5085388;27;45921;-44
2022/12/10 10:26:14;;;;;;;;;30.50;24.75;;;;;6.59;54.72;100588.19;5069368;27;45343;-46
2022/12/10 10:28:40;;;;;;;;;26.75;21.00;;;;;6.61;54.49;100588.16;5077044;28;45437;-43
2022/12/10 10:31:33;;;;;;;;;27.00;22.50;;;;;6.56;54.11;100588.22;5067237;28;46438;-43
2022/12/10 10:34:05;;;;;;;;;34.00;22.00;;;;;6.55;54.52;100585.63;5070412;27;45288;-47
2022/12/10 10:36:35;;;;;;;;;41.75;27.50;;;;;6.52;54.42;100588.28;5083367;27;45420;-44
2022/12/10 10:39:15;;;;;;;;;28.25;20.00;;;;;6.50;54.46;100582.22;5075032;27;45438;-43
2022/12/10 10:41:41;;;;;;;;;27.50;23.50;;;;;6.50;54.63;100587.44;5069299;27;45402;-43
2022/12/10 10:44:15;;;;;;;;;23.25;18.75;;;;;6.51;54.34;100584.81;5072675;27;45422;-43
2022/12/10 10:46:42;;;;;;;;;28.00;23.50;;;;;6.53;54.51;100585.66;5077070;27;45513;-44
2022/12/10 10:49:28;;;;;;;;;28.50;19.75;;;;;6.53;54.54;100588.25;5067696;27;45540;-43
2022/12/10 10:51:59;;;;;;;;;43.50;34.00;;;;;6.53;54.62;100590.84;5094488;27;46344;-43
2022/12/10 10:54:38;;;;;;;;;50.25;34.75;;;;;6.60;54.96;100591.63;5073052;27;45313;-45
2022/12/10 10:57:11;;;;;;;;;37.00;32.25;;;;;6.67;54.72;100595.88;5073240;27;45577;-47
2022/12/10 10:59:36;;;;;;;;;32.00;24.25;;;;;6.73;54.46;100598.41;5072742;27;45583;-41
2022/12/10 11:02:25;;;;;;;;;36.00;27.75;;;;;6.79;54.35;100600.06;5091665;27;45492;-42
2022/12/10 11:04:52;;;;;;;;;39.00;27.25;;;;;6.86;54.41;100591.28;5071226;27;45291;-38
2022/12/10 11:07:25;;;;;;;;;23.25;22.00;;;;;6.92;53.92;100603.34;5088592;27;45706;-38
2022/12/10 11:09:53;;;;;;;;;35.25;26.50;;;;;6.98;54.05;100598.06;5083003;27;45243;-38
2022/12/10 11:12:27;;;;;;;;;33.00;26.25;;;;;7.01;53.80;100605.81;5072739;27;45679;-40
2022/12/10 11:14:52;;;;;;;;;36.75;27.00;;;;;7.02;53.83;100594.53;5070085;27;45373;-40
2022/12/10 11:17:24;;;;;;;;;33.00;28.25;;;;;7.02;53.66;100591.94;5064992;27;46278;-40
2022/12/10 11:19:54;;;;;;;;;39.00;31.75;;;;;7.06;54.00;100601.41;5077266;28;45473;-40
2022/12/10 11:22:25;;;;;;;;;41.75;31.75;;;;;7.09;53.94;100593.56;5071409;28;46708;-43
2022/12/10 11:24:51;;;;;;;;;34.25;28.00;;;;;7.11;53.78;100599.59;5085615;27;45983;-40
2022/12/10 11:27:33;;;;;;;;;31.75;26.00;;;;;7.08;53.56;100583.16;5078090;27;56632;-40
2022/12/10 11:30:14;;;;;;;;;42.25;24.50;;;;;7.09;53.72;100590.09;5066748;27;45470;-40